sensor_id;sensor_type;location;lat;lon;timestamp;P1;durP1;ratioP1;P2;durP2;ratioP2
78053;SDS011;67726;45.636;11.752;2023-08-06T00:00:25;7.63;;;4.07;;
78053;SDS011;67726;45.636;11.752;2023-08-06T00:02:51;7.97;;;3.55;;
78053;SDS011;67726;45.636;11.752;2023-08-06T00:05:16;7.03;;;3.43;;
78053;SDS011;67726;45.636;11.752;2023-08-06T00:07:48;6.33;;;3.50;;
78053;SDS011;67726;45.636;11.752;2023-08-06T00:10:14;10.50;;;3.95;;
78053;SDS011;67726;45.636;11.752;2023-08-06T00:12:40;7.88;;;3.63;;
78053;SDS011;67726;45.636;11.752;2023-08-06T00:15:06;7.13;;;3.73;;
78053;SDS011;67726;45.636;11.752;2023-08-06T00:17:33;8.60;;;3.72;;
78053;SDS011;67726;45.636;11.752;2023-08-06T00:19:59;8.27;;;3.30;;
78053;SDS011;67726;45.636;11.752;2023-08-06T00:22:29;6.30;;;3.50;;
78053;SDS011;67726;45.636;11.752;2023-08-06T00:24:56;9.90;;;3.63;;
78053;SDS011;67726;45.636;11.752;2023-08-06T00:27:22;6.43;;;3.15;;
78053;SDS011;67726;45.636;11.752;2023-08-06T00:29:48;6.20;;;3.67;;
78053;SDS011;67726;45.636;11.752;2023-08-06T00:32:14;7.17;;;3.43;;
78053;SDS011;67726;45.636;11.752;2023-08-06T00:34:39;7.78;;;3.63;;
78053;SDS011;67726;45.636;11.752;2023-08-06T00:37:05;6.70;;;3.60;;
78053;SDS011;67726;45.636;11.752;2023-08-06T00:39:31;7.43;;;3.42;;
78053;SDS011;67726;45.636;11.752;2023-08-06T00:41:56;9.47;;;3.23;;
78053;SDS011;67726;45.636;11.752;2023-08-06T00:44:23;5.53;;;3.00;;
78053;SDS011;67726;45.636;11.752;2023-08-06T00:46:49;5.65;;;3.30;;
78053;SDS011;67726;45.636;11.752;2023-08-06T00:49:15;5.57;;;3.00;;
78053;SDS011;67726;45.636;11.752;2023-08-06T00:51:41;6.00;;;3.28;;
78053;SDS011;67726;45.636;11.752;2023-08-06T00:54:08;9.00;;;3.30;;
78053;SDS011;67726;45.636;11.752;2023-08-06T00:56:34;9.07;;;3.13;;
78053;SDS011;67726;45.636;11.752;2023-08-06T00:59:01;7.77;;;3.40;;
78053;SDS011;67726;45.636;11.752;2023-08-06T01:01:29;6.97;;;3.50;;
78053;SDS011;67726;45.636;11.752;2023-08-06T01:03:55;7.30;;;3.72;;
78053;SDS011;67726;45.636;11.752;2023-08-06T01:06:23;7.60;;;3.60;;
78053;SDS011;67726;45.636;11.752;2023-08-06T01:09:18;6.90;;;4.13;;
78053;SDS011;67726;45.636;11.752;2023-08-06T01:17:31;7.18;;;4.32;;
78053;SDS011;67726;45.636;11.752;2023-08-06T01:19:58;8.93;;;3.97;;
78053;SDS011;67726;45.636;11.752;2023-08-06T01:22:23;8.07;;;4.17;;
78053;SDS011;67726;45.636;11.752;2023-08-06T01:24:49;9.68;;;4.90;;
78053;SDS011;67726;45.636;11.752;2023-08-06T01:30:03;9.40;;;4.80;;
78053;SDS011;67726;45.636;11.752;2023-08-06T01:32:39;9.02;;;4.65;;
78053;SDS011;67726;45.636;11.752;2023-08-06T01:35:09;8.25;;;4.03;;
78053;SDS011;67726;45.636;11.752;2023-08-06T01:37:36;7.75;;;4.43;;
78053;SDS011;67726;45.636;11.752;2023-08-06T01:40:06;8.37;;;4.70;;
78053;SDS011;67726;45.636;11.752;2023-08-06T01:42:36;8.80;;;5.03;;
78053;SDS011;67726;45.636;11.752;2023-08-06T01:45:01;9.02;;;5.13;;
78053;SDS011;67726;45.636;11.752;2023-08-06T01:47:27;7.63;;;4.70;;
78053;SDS011;67726;45.636;11.752;2023-08-06T01:49:53;11.35;;;4.90;;
78053;SDS011;67726;45.636;11.752;2023-08-06T01:52:18;8.50;;;4.47;;
78053;SDS011;67726;45.636;11.752;2023-08-06T01:54:44;8.05;;;5.30;;
78053;SDS011;67726;45.636;11.752;2023-08-06T01:57:10;9.70;;;4.30;;
78053;SDS011;67726;45.636;11.752;2023-08-06T01:59:35;10.93;;;4.95;;
78053;SDS011;67726;45.636;11.752;2023-08-06T02:02:01;9.07;;;5.13;;
78053;SDS011;67726;45.636;11.752;2023-08-06T02:04:27;9.45;;;5.20;;
78053;SDS011;67726;45.636;11.752;2023-08-06T02:06:52;9.10;;;4.67;;
78053;SDS011;67726;45.636;11.752;2023-08-06T02:09:18;7.30;;;4.30;;
78053;SDS011;67726;45.636;11.752;2023-08-06T02:11:44;8.05;;;4.53;;
78053;SDS011;67726;45.636;11.752;2023-08-06T02:14:09;6.97;;;4.57;;
78053;SDS011;67726;45.636;11.752;2023-08-06T02:16:35;9.27;;;4.40;;
78053;SDS011;67726;45.636;11.752;2023-08-06T02:19:01;10.17;;;4.80;;
78053;SDS011;67726;45.636;11.752;2023-08-06T02:21:26;8.32;;;4.53;;
78053;SDS011;67726;45.636;11.752;2023-08-06T02:23:52;7.13;;;3.80;;
78053;SDS011;67726;45.636;11.752;2023-08-06T02:26:18;9.27;;;4.95;;
78053;SDS011;67726;45.636;11.752;2023-08-06T02:28:43;13.40;;;5.00;;
78053;SDS011;67726;45.636;11.752;2023-08-06T02:31:09;7.93;;;4.88;;
78053;SDS011;67726;45.636;11.752;2023-08-06T02:33:34;9.57;;;4.57;;
78053;SDS011;67726;45.636;11.752;2023-08-06T02:36:00;8.50;;;4.37;;
78053;SDS011;67726;45.636;11.752;2023-08-06T02:38:28;7.97;;;4.33;;
78053;SDS011;67726;45.636;11.752;2023-08-06T02:40:54;10.20;;;4.70;;
78053;SDS011;67726;45.636;11.752;2023-08-06T02:43:20;8.20;;;4.90;;
78053;SDS011;67726;45.636;11.752;2023-08-06T02:45:45;9.55;;;4.55;;
78053;SDS011;67726;45.636;11.752;2023-08-06T02:48:11;8.17;;;4.20;;
78053;SDS011;67726;45.636;11.752;2023-08-06T02:50:40;10.20;;;4.85;;
78053;SDS011;67726;45.636;11.752;2023-08-06T02:53:06;8.05;;;4.22;;
78053;SDS011;67726;45.636;11.752;2023-08-06T02:55:33;7.47;;;4.40;;
78053;SDS011;67726;45.636;11.752;2023-08-06T02:57:59;9.32;;;4.80;;
78053;SDS011;67726;45.636;11.752;2023-08-06T03:00:28;7.55;;;4.10;;
78053;SDS011;67726;45.636;11.752;2023-08-06T03:02:53;8.47;;;4.30;;
78053;SDS011;67726;45.636;11.752;2023-08-06T03:05:19;7.45;;;4.07;;
78053;SDS011;67726;45.636;11.752;2023-08-06T03:07:45;10.23;;;4.63;;
78053;SDS011;67726;45.636;11.752;2023-08-06T03:10:10;8.20;;;4.13;;
78053;SDS011;67726;45.636;11.752;2023-08-06T03:12:36;8.83;;;4.00;;
78053;SDS011;67726;45.636;11.752;2023-08-06T03:15:02;8.38;;;4.00;;
78053;SDS011;67726;45.636;11.752;2023-08-06T03:17:28;10.60;;;3.73;;
78053;SDS011;67726;45.636;11.752;2023-08-06T03:19:53;8.18;;;3.42;;
78053;SDS011;67726;45.636;11.752;2023-08-06T03:22:19;6.77;;;3.70;;
78053;SDS011;67726;45.636;11.752;2023-08-06T03:24:45;11.48;;;4.65;;
78053;SDS011;67726;45.636;11.752;2023-08-06T03:27:10;9.17;;;4.70;;
78053;SDS011;67726;45.636;11.752;2023-08-06T03:29:36;7.70;;;4.43;;
78053;SDS011;67726;45.636;11.752;2023-08-06T03:32:01;7.77;;;4.83;;
78053;SDS011;67726;45.636;11.752;2023-08-06T03:34:27;7.57;;;4.17;;
78053;SDS011;67726;45.636;11.752;2023-08-06T03:36:53;7.90;;;4.80;;
78053;SDS011;67726;45.636;11.752;2023-08-06T03:39:18;8.97;;;4.40;;
78053;SDS011;67726;45.636;11.752;2023-08-06T03:41:44;8.68;;;4.45;;
78053;SDS011;67726;45.636;11.752;2023-08-06T03:44:10;8.73;;;4.80;;
78053;SDS011;67726;45.636;11.752;2023-08-06T03:46:35;9.27;;;4.32;;
78053;SDS011;67726;45.636;11.752;2023-08-06T03:49:01;6.53;;;3.87;;
78053;SDS011;67726;45.636;11.752;2023-08-06T03:51:27;6.80;;;3.35;;
78053;SDS011;67726;45.636;11.752;2023-08-06T03:53:52;7.57;;;3.97;;
78053;SDS011;67726;45.636;11.752;2023-08-06T03:56:18;6.47;;;3.05;;
78053;SDS011;67726;45.636;11.752;2023-08-06T03:58:44;6.30;;;2.90;;
78053;SDS011;67726;45.636;11.752;2023-08-06T04:01:09;7.07;;;2.88;;
78053;SDS011;67726;45.636;11.752;2023-08-06T04:03:35;6.67;;;2.53;;
78053;SDS011;67726;45.636;11.752;2023-08-06T04:06:03;7.47;;;3.03;;
78053;SDS011;67726;45.636;11.752;2023-08-06T04:08:29;5.97;;;2.43;;
78053;SDS011;67726;45.636;11.752;2023-08-06T04:10:55;5.35;;;2.75;;
78053;SDS011;67726;45.636;11.752;2023-08-06T04:13:20;8.60;;;3.20;;
78053;SDS011;67726;45.636;11.752;2023-08-06T04:15:46;6.40;;;3.00;;
78053;SDS011;67726;45.636;11.752;2023-08-06T04:18:12;6.20;;;3.00;;
78053;SDS011;67726;45.636;11.752;2023-08-06T04:20:47;7.03;;;3.30;;
78053;SDS011;67726;45.636;11.752;2023-08-06T04:23:14;5.22;;;2.70;;
78053;SDS011;67726;45.636;11.752;2023-08-06T04:25:40;7.03;;;3.13;;
78053;SDS011;67726;45.636;11.752;2023-08-06T04:28:06;7.23;;;2.93;;
78053;SDS011;67726;45.636;11.752;2023-08-06T04:30:32;6.07;;;2.55;;
78053;SDS011;67726;45.636;11.752;2023-08-06T04:32:58;9.18;;;3.03;;
78053;SDS011;67726;45.636;11.752;2023-08-06T04:35:24;7.43;;;3.00;;
78053;SDS011;67726;45.636;11.752;2023-08-06T04:37:50;7.10;;;2.70;;
78053;SDS011;67726;45.636;11.752;2023-08-06T04:40:15;6.63;;;2.50;;
78053;SDS011;67726;45.636;11.752;2023-08-06T04:42:41;6.23;;;2.70;;
78053;SDS011;67726;45.636;11.752;2023-08-06T04:45:07;5.43;;;2.55;;
78053;SDS011;67726;45.636;11.752;2023-08-06T04:47:33;6.07;;;2.70;;
78053;SDS011;67726;45.636;11.752;2023-08-06T04:49:58;5.43;;;2.58;;
78053;SDS011;67726;45.636;11.752;2023-08-06T04:52:24;5.97;;;2.90;;
78053;SDS011;67726;45.636;11.752;2023-08-06T04:54:53;5.25;;;2.40;;
78053;SDS011;67726;45.636;11.752;2023-08-06T04:57:19;6.03;;;2.55;;
78053;SDS011;67726;45.636;11.752;2023-08-06T04:59:45;7.43;;;2.63;;
78053;SDS011;67726;45.636;11.752;2023-08-06T05:02:11;4.87;;;2.40;;
78053;SDS011;67726;45.636;11.752;2023-08-06T05:04:36;7.25;;;2.60;;
78053;SDS011;67726;45.636;11.752;2023-08-06T05:07:02;5.53;;;2.43;;
78053;SDS011;67726;45.636;11.752;2023-08-06T05:09:28;6.38;;;2.55;;
78053;SDS011;67726;45.636;11.752;2023-08-06T05:11:54;4.82;;;2.00;;
78053;SDS011;67726;45.636;11.752;2023-08-06T05:14:20;5.77;;;2.17;;
78053;SDS011;67726;45.636;11.752;2023-08-06T05:16:45;6.80;;;2.20;;
78053;SDS011;67726;45.636;11.752;2023-08-06T05:19:11;4.32;;;1.80;;
78053;SDS011;67726;45.636;11.752;2023-08-06T05:21:37;7.43;;;1.77;;
78053;SDS011;67726;45.636;11.752;2023-08-06T05:24:02;4.05;;;1.92;;
78053;SDS011;67726;45.636;11.752;2023-08-06T05:26:28;4.13;;;1.70;;
78053;SDS011;67726;45.636;11.752;2023-08-06T05:28:54;13.88;;;4.40;;
78053;SDS011;67726;45.636;11.752;2023-08-06T05:31:19;5.97;;;2.07;;
78053;SDS011;67726;45.636;11.752;2023-08-06T05:33:45;4.45;;;1.85;;
78053;SDS011;67726;45.636;11.752;2023-08-06T05:36:11;4.17;;;1.60;;
78053;SDS011;67726;45.636;11.752;2023-08-06T05:38:36;5.28;;;1.60;;
78053;SDS011;67726;45.636;11.752;2023-08-06T05:41:02;4.20;;;1.70;;
78053;SDS011;67726;45.636;11.752;2023-08-06T05:43:28;4.50;;;1.50;;
78053;SDS011;67726;45.636;11.752;2023-08-06T05:45:54;4.50;;;1.80;;
78053;SDS011;67726;45.636;11.752;2023-08-06T05:48:20;4.77;;;1.50;;
78053;SDS011;67726;45.636;11.752;2023-08-06T05:50:47;4.90;;;1.88;;
78053;SDS011;67726;45.636;11.752;2023-08-06T05:53:13;3.92;;;1.50;;
78053;SDS011;67726;45.636;11.752;2023-08-06T05:55:39;3.47;;;1.47;;
78053;SDS011;67726;45.636;11.752;2023-08-06T05:58:04;4.28;;;1.35;;
78053;SDS011;67726;45.636;11.752;2023-08-06T06:00:30;4.17;;;1.60;;
78053;SDS011;67726;45.636;11.752;2023-08-06T06:02:55;5.00;;;1.70;;
78053;SDS011;67726;45.636;11.752;2023-08-06T06:05:21;4.73;;;1.67;;
78053;SDS011;67726;45.636;11.752;2023-08-06T06:07:47;7.25;;;1.92;;
78053;SDS011;67726;45.636;11.752;2023-08-06T06:10:13;5.73;;;2.10;;
78053;SDS011;67726;45.636;11.752;2023-08-06T06:12:38;7.63;;;3.08;;
78053;SDS011;67726;45.636;11.752;2023-08-06T06:15:06;8.63;;;2.70;;
78053;SDS011;67726;45.636;11.752;2023-08-06T06:17:31;8.63;;;3.22;;
78053;SDS011;67726;45.636;11.752;2023-08-06T06:19:58;10.13;;;4.43;;
78053;SDS011;67726;45.636;11.752;2023-08-06T06:22:24;9.67;;;3.53;;
78053;SDS011;67726;45.636;11.752;2023-08-06T06:24:49;9.63;;;4.03;;
78053;SDS011;67726;45.636;11.752;2023-08-06T06:27:15;6.80;;;2.10;;
78053;SDS011;67726;45.636;11.752;2023-08-06T06:29:41;6.20;;;1.80;;
78053;SDS011;67726;45.636;11.752;2023-08-06T06:32:06;5.20;;;1.50;;
78053;SDS011;67726;45.636;11.752;2023-08-06T06:34:32;5.07;;;1.50;;
78053;SDS011;67726;45.636;11.752;2023-08-06T06:36:58;6.37;;;2.00;;
78053;SDS011;67726;45.636;11.752;2023-08-06T06:39:23;3.60;;;1.40;;
78053;SDS011;67726;45.636;11.752;2023-08-06T06:41:49;4.23;;;1.30;;
78053;SDS011;67726;45.636;11.752;2023-08-06T06:44:14;5.57;;;1.58;;
78053;SDS011;67726;45.636;11.752;2023-08-06T06:46:40;8.10;;;1.50;;
78053;SDS011;67726;45.636;11.752;2023-08-06T06:49:06;4.18;;;1.73;;
78053;SDS011;67726;45.636;11.752;2023-08-06T06:51:32;4.80;;;1.47;;
78053;SDS011;67726;45.636;11.752;2023-08-06T06:53:57;5.28;;;1.40;;
78053;SDS011;67726;45.636;11.752;2023-08-06T06:56:23;5.70;;;1.40;;
78053;SDS011;67726;45.636;11.752;2023-08-06T06:58:49;3.85;;;1.48;;
78053;SDS011;67726;45.636;11.752;2023-08-06T07:01:15;3.90;;;1.60;;
78053;SDS011;67726;45.636;11.752;2023-08-06T07:03:40;3.65;;;1.27;;
78053;SDS011;67726;45.636;11.752;2023-08-06T07:06:06;4.83;;;1.60;;
78053;SDS011;67726;45.636;11.752;2023-08-06T07:08:32;5.47;;;1.27;;
78053;SDS011;67726;45.636;11.752;2023-08-06T07:11:02;6.20;;;1.50;;
78053;SDS011;67726;45.636;11.752;2023-08-06T07:13:29;4.88;;;1.50;;
78053;SDS011;67726;45.636;11.752;2023-08-06T07:15:55;4.68;;;1.50;;
78053;SDS011;67726;45.636;11.752;2023-08-06T07:18:21;4.47;;;1.30;;
78053;SDS011;67726;45.636;11.752;2023-08-06T07:20:53;5.95;;;1.52;;
78053;SDS011;67726;45.636;11.752;2023-08-06T07:23:20;4.10;;;1.40;;
78053;SDS011;67726;45.636;11.752;2023-08-06T07:25:47;5.88;;;1.40;;
78053;SDS011;67726;45.636;11.752;2023-08-06T07:28:13;4.43;;;1.70;;
78053;SDS011;67726;45.636;11.752;2023-08-06T07:30:40;4.57;;;1.57;;
78053;SDS011;67726;45.636;11.752;2023-08-06T07:33:06;6.40;;;1.40;;
78053;SDS011;67726;45.636;11.752;2023-08-06T07:35:32;6.15;;;1.50;;
78053;SDS011;67726;45.636;11.752;2023-08-06T07:37:58;5.05;;;1.70;;
78053;SDS011;67726;45.636;11.752;2023-08-06T07:40:24;4.80;;;1.87;;
78053;SDS011;67726;45.636;11.752;2023-08-06T07:42:50;4.57;;;1.65;;
78053;SDS011;67726;45.636;11.752;2023-08-06T07:45:16;6.20;;;2.00;;
78053;SDS011;67726;45.636;11.752;2023-08-06T07:47:41;5.75;;;1.60;;
78053;SDS011;67726;45.636;11.752;2023-08-06T07:50:08;5.22;;;1.70;;
78053;SDS011;67726;45.636;11.752;2023-08-06T07:52:34;5.47;;;1.97;;
78053;SDS011;67726;45.636;11.752;2023-08-06T07:55:02;4.93;;;2.10;;
78053;SDS011;67726;45.636;11.752;2023-08-06T07:57:32;6.10;;;1.92;;
78053;SDS011;67726;45.636;11.752;2023-08-06T07:59:59;4.63;;;1.90;;
78053;SDS011;67726;45.636;11.752;2023-08-06T08:02:25;3.83;;;1.50;;
78053;SDS011;67726;45.636;11.752;2023-08-06T08:04:51;6.10;;;1.70;;
78053;SDS011;67726;45.636;11.752;2023-08-06T08:07:17;5.25;;;1.70;;
78053;SDS011;67726;45.636;11.752;2023-08-06T08:09:44;6.18;;;1.75;;
78053;SDS011;67726;45.636;11.752;2023-08-06T08:12:09;5.35;;;2.00;;
78053;SDS011;67726;45.636;11.752;2023-08-06T08:14:35;5.90;;;2.00;;
78053;SDS011;67726;45.636;11.752;2023-08-06T08:17:04;3.97;;;1.65;;
78053;SDS011;67726;45.636;11.752;2023-08-06T08:19:31;4.63;;;1.80;;
78053;SDS011;67726;45.636;11.752;2023-08-06T08:21:58;4.33;;;1.50;;
78053;SDS011;67726;45.636;11.752;2023-08-06T08:24:24;4.70;;;1.83;;
78053;SDS011;67726;45.636;11.752;2023-08-06T08:26:50;6.90;;;1.95;;
78053;SDS011;67726;45.636;11.752;2023-08-06T08:29:16;6.25;;;1.92;;
78053;SDS011;67726;45.636;11.752;2023-08-06T08:31:42;4.67;;;1.70;;
78053;SDS011;67726;45.636;11.752;2023-08-06T08:34:08;6.05;;;1.80;;
78053;SDS011;67726;45.636;11.752;2023-08-06T08:36:34;4.93;;;2.05;;
78053;SDS011;67726;45.636;11.752;2023-08-06T08:39:00;5.43;;;1.90;;
78053;SDS011;67726;45.636;11.752;2023-08-06T08:41:28;6.43;;;2.10;;
78053;SDS011;67726;45.636;11.752;2023-08-06T08:43:55;5.63;;;1.90;;
78053;SDS011;67726;45.636;11.752;2023-08-06T08:46:23;5.65;;;2.30;;
78053;SDS011;67726;45.636;11.752;2023-08-06T08:48:49;5.78;;;2.10;;
78053;SDS011;67726;45.636;11.752;2023-08-06T08:51:15;5.95;;;2.38;;
78053;SDS011;67726;45.636;11.752;2023-08-06T08:53:41;6.70;;;2.30;;
78053;SDS011;67726;45.636;11.752;2023-08-06T08:56:11;6.32;;;2.40;;
78053;SDS011;67726;45.636;11.752;2023-08-06T08:58:39;5.18;;;2.33;;
78053;SDS011;67726;45.636;11.752;2023-08-06T09:01:05;6.18;;;2.05;;
78053;SDS011;67726;45.636;11.752;2023-08-06T09:03:32;7.10;;;2.37;;
78053;SDS011;67726;45.636;11.752;2023-08-06T09:05:59;5.65;;;2.20;;
78053;SDS011;67726;45.636;11.752;2023-08-06T09:08:31;5.68;;;2.35;;
78053;SDS011;67726;45.636;11.752;2023-08-06T09:11:02;4.72;;;2.10;;
78053;SDS011;67726;45.636;11.752;2023-08-06T09:13:29;5.88;;;2.10;;
78053;SDS011;67726;45.636;11.752;2023-08-06T09:15:55;5.80;;;1.60;;
78053;SDS011;67726;45.636;11.752;2023-08-06T09:18:27;5.60;;;1.80;;
78053;SDS011;67726;45.636;11.752;2023-08-06T09:20:54;4.20;;;1.50;;
78053;SDS011;67726;45.636;11.752;2023-08-06T09:23:20;3.83;;;1.55;;
78053;SDS011;67726;45.636;11.752;2023-08-06T09:25:45;4.97;;;1.33;;
78053;SDS011;67726;45.636;11.752;2023-08-06T09:28:12;4.47;;;1.43;;
78053;SDS011;67726;45.636;11.752;2023-08-06T09:30:37;4.53;;;1.48;;
78053;SDS011;67726;45.636;11.752;2023-08-06T09:33:08;5.45;;;1.63;;
78053;SDS011;67726;45.636;11.752;2023-08-06T09:35:39;5.83;;;1.50;;
78053;SDS011;67726;45.636;11.752;2023-08-06T09:38:05;4.20;;;1.52;;
78053;SDS011;67726;45.636;11.752;2023-08-06T09:40:34;4.97;;;1.63;;
78053;SDS011;67726;45.636;11.752;2023-08-06T09:43:00;5.13;;;1.90;;
78053;SDS011;67726;45.636;11.752;2023-08-06T09:45:28;3.78;;;1.48;;
78053;SDS011;67726;45.636;11.752;2023-08-06T09:47:57;4.70;;;1.60;;
78053;SDS011;67726;45.636;11.752;2023-08-06T09:50:23;4.67;;;1.50;;
78053;SDS011;67726;45.636;11.752;2023-08-06T09:52:55;5.25;;;2.10;;
78053;SDS011;67726;45.636;11.752;2023-08-06T09:55:21;3.45;;;1.40;;
78053;SDS011;67726;45.636;11.752;2023-08-06T09:57:48;4.65;;;1.10;;
78053;SDS011;67726;45.636;11.752;2023-08-06T10:00:15;3.75;;;1.73;;
78053;SDS011;67726;45.636;11.752;2023-08-06T10:02:41;4.53;;;1.70;;
78053;SDS011;67726;45.636;11.752;2023-08-06T10:05:08;3.95;;;1.77;;
78053;SDS011;67726;45.636;11.752;2023-08-06T10:07:34;5.13;;;1.70;;
78053;SDS011;67726;45.636;11.752;2023-08-06T10:10:01;5.07;;;1.80;;
78053;SDS011;67726;45.636;11.752;2023-08-06T10:12:50;4.28;;;1.48;;
78053;SDS011;67726;45.636;11.752;2023-08-06T10:15:16;4.10;;;1.50;;
78053;SDS011;67726;45.636;11.752;2023-08-06T10:17:47;6.30;;;1.80;;
78053;SDS011;67726;45.636;11.752;2023-08-06T10:20:16;4.60;;;1.60;;
78053;SDS011;67726;45.636;11.752;2023-08-06T10:22:42;4.20;;;1.40;;
78053;SDS011;67726;45.636;11.752;2023-08-06T10:25:09;4.53;;;1.40;;
78053;SDS011;67726;45.636;11.752;2023-08-06T10:27:39;6.23;;;1.57;;
78053;SDS011;67726;45.636;11.752;2023-08-06T10:32:51;4.80;;;1.90;;
78053;SDS011;67726;45.636;11.752;2023-08-06T10:35:38;6.15;;;1.80;;
78053;SDS011;67726;45.636;11.752;2023-08-06T10:40:35;3.95;;;1.35;;
78053;SDS011;67726;45.636;11.752;2023-08-06T10:43:04;4.20;;;1.60;;
78053;SDS011;67726;45.636;11.752;2023-08-06T10:45:35;4.80;;;1.90;;
78053;SDS011;67726;45.636;11.752;2023-08-06T10:48:03;5.50;;;1.67;;
78053;SDS011;67726;45.636;11.752;2023-08-06T10:50:29;5.38;;;1.80;;
78053;SDS011;67726;45.636;11.752;2023-08-06T10:52:56;3.92;;;1.20;;
78053;SDS011;67726;45.636;11.752;2023-08-06T10:55:27;4.15;;;1.60;;
78053;SDS011;67726;45.636;11.752;2023-08-06T10:57:54;4.70;;;1.60;;
78053;SDS011;67726;45.636;11.752;2023-08-06T11:00:21;4.43;;;1.50;;
78053;SDS011;67726;45.636;11.752;2023-08-06T11:02:48;3.83;;;1.33;;
78053;SDS011;67726;45.636;11.752;2023-08-06T11:05:15;4.50;;;1.48;;
78053;SDS011;67726;45.636;11.752;2023-08-06T11:07:41;4.57;;;1.60;;
78053;SDS011;67726;45.636;11.752;2023-08-06T11:10:08;3.90;;;1.35;;
78053;SDS011;67726;45.636;11.752;2023-08-06T11:12:35;3.90;;;1.60;;
78053;SDS011;67726;45.636;11.752;2023-08-06T11:15:01;4.25;;;1.48;;
78053;SDS011;67726;45.636;11.752;2023-08-06T11:17:28;5.13;;;1.50;;
78053;SDS011;67726;45.636;11.752;2023-08-06T11:19:55;4.70;;;1.50;;
78053;SDS011;67726;45.636;11.752;2023-08-06T11:22:21;3.40;;;1.40;;
78053;SDS011;67726;45.636;11.752;2023-08-06T11:24:50;4.40;;;1.60;;
78053;SDS011;67726;45.636;11.752;2023-08-06T11:27:16;3.85;;;1.45;;
78053;SDS011;67726;45.636;11.752;2023-08-06T11:29:42;3.63;;;1.40;;
78053;SDS011;67726;45.636;11.752;2023-08-06T11:32:09;3.85;;;1.38;;
78053;SDS011;67726;45.636;11.752;2023-08-06T11:34:36;3.70;;;1.60;;
78053;SDS011;67726;45.636;11.752;2023-08-06T11:37:05;3.77;;;1.40;;
78053;SDS011;67726;45.636;11.752;2023-08-06T11:39:34;4.25;;;1.65;;
78053;SDS011;67726;45.636;11.752;2023-08-06T11:42:05;4.55;;;1.60;;
78053;SDS011;67726;45.636;11.752;2023-08-06T11:44:32;4.25;;;1.40;;
78053;SDS011;67726;45.636;11.752;2023-08-06T11:47:00;4.07;;;1.48;;
78053;SDS011;67726;45.636;11.752;2023-08-06T11:52:19;3.97;;;1.50;;
78053;SDS011;67726;45.636;11.752;2023-08-06T11:54:48;3.90;;;1.60;;
78053;SDS011;67726;45.636;11.752;2023-08-06T11:57:29;3.33;;;1.20;;
78053;SDS011;67726;45.636;11.752;2023-08-06T12:00:03;4.70;;;1.10;;
78053;SDS011;67726;45.636;11.752;2023-08-06T12:02:33;3.60;;;1.30;;
78053;SDS011;67726;45.636;11.752;2023-08-06T12:05:00;3.30;;;1.20;;
78053;SDS011;67726;45.636;11.752;2023-08-06T12:07:37;3.67;;;1.20;;
78053;SDS011;67726;45.636;11.752;2023-08-06T12:10:04;3.00;;;1.10;;
78053;SDS011;67726;45.636;11.752;2023-08-06T12:12:32;4.38;;;1.10;;
78053;SDS011;67726;45.636;11.752;2023-08-06T12:14:57;3.60;;;1.17;;
78053;SDS011;67726;45.636;11.752;2023-08-06T12:17:26;3.72;;;1.10;;
78053;SDS011;67726;45.636;11.752;2023-08-06T12:19:52;4.73;;;1.10;;
78053;SDS011;67726;45.636;11.752;2023-08-06T12:22:17;4.03;;;1.10;;
78053;SDS011;67726;45.636;11.752;2023-08-06T12:24:44;3.25;;;1.20;;
78053;SDS011;67726;45.636;11.752;2023-08-06T12:27:10;2.65;;;1.10;;
78053;SDS011;67726;45.636;11.752;2023-08-06T12:29:47;4.53;;;1.10;;
78053;SDS011;67726;45.636;11.752;2023-08-06T12:32:13;3.58;;;1.20;;
78053;SDS011;67726;45.636;11.752;2023-08-06T12:34:40;3.38;;;1.20;;
78053;SDS011;67726;45.636;11.752;2023-08-06T12:37:06;4.97;;;1.40;;
78053;SDS011;67726;45.636;11.752;2023-08-06T12:39:33;3.57;;;1.20;;
78053;SDS011;67726;45.636;11.752;2023-08-06T12:42:00;4.13;;;1.20;;
78053;SDS011;67726;45.636;11.752;2023-08-06T12:44:26;2.95;;;1.02;;
78053;SDS011;67726;45.636;11.752;2023-08-06T12:46:52;3.03;;;1.10;;
78053;SDS011;67726;45.636;11.752;2023-08-06T12:49:18;5.13;;;1.08;;
78053;SDS011;67726;45.636;11.752;2023-08-06T12:51:51;4.20;;;1.38;;
78053;SDS011;67726;45.636;11.752;2023-08-06T12:54:18;3.05;;;1.20;;
78053;SDS011;67726;45.636;11.752;2023-08-06T12:56:47;3.90;;;1.30;;
78053;SDS011;67726;45.636;11.752;2023-08-06T12:59:13;3.87;;;1.27;;
78053;SDS011;67726;45.636;11.752;2023-08-06T13:01:40;4.47;;;1.30;;
78053;SDS011;67726;45.636;11.752;2023-08-06T13:04:06;4.25;;;1.48;;
78053;SDS011;67726;45.636;11.752;2023-08-06T13:06:32;4.30;;;1.43;;
78053;SDS011;67726;45.636;11.752;2023-08-06T13:09:08;4.65;;;1.50;;
78053;SDS011;67726;45.636;11.752;2023-08-06T13:11:35;6.35;;;1.58;;
78053;SDS011;67726;45.636;11.752;2023-08-06T13:16:38;3.95;;;1.40;;
78053;SDS011;67726;45.636;11.752;2023-08-06T13:19:06;3.63;;;1.60;;
78053;SDS011;67726;45.636;11.752;2023-08-06T13:24:17;4.35;;;1.60;;
78053;SDS011;67726;45.636;11.752;2023-08-06T13:26:42;4.53;;;1.50;;
78053;SDS011;67726;45.636;11.752;2023-08-06T13:29:08;3.87;;;1.30;;
78053;SDS011;67726;45.636;11.752;2023-08-06T13:31:35;3.38;;;1.35;;
78053;SDS011;67726;45.636;11.752;2023-08-06T13:34:01;6.47;;;1.63;;
78053;SDS011;67726;45.636;11.752;2023-08-06T13:36:27;4.20;;;1.53;;
78053;SDS011;67726;45.636;11.752;2023-08-06T13:38:53;4.28;;;1.42;;
78053;SDS011;67726;45.636;11.752;2023-08-06T13:41:20;4.30;;;1.80;;
78053;SDS011;67726;45.636;11.752;2023-08-06T13:43:45;4.77;;;1.57;;
78053;SDS011;67726;45.636;11.752;2023-08-06T13:46:11;3.80;;;1.50;;
78053;SDS011;67726;45.636;11.752;2023-08-06T13:48:41;4.63;;;2.17;;
78053;SDS011;67726;45.636;11.752;2023-08-06T13:51:08;4.32;;;1.70;;
78053;SDS011;67726;45.636;11.752;2023-08-06T13:53:34;4.10;;;1.77;;
78053;SDS011;67726;45.636;11.752;2023-08-06T13:56:00;3.95;;;1.60;;
78053;SDS011;67726;45.636;11.752;2023-08-06T13:58:26;5.33;;;1.90;;
78053;SDS011;67726;45.636;11.752;2023-08-06T14:00:52;5.25;;;1.85;;
78053;SDS011;67726;45.636;11.752;2023-08-06T14:03:19;4.80;;;2.10;;
78053;SDS011;67726;45.636;11.752;2023-08-06T14:05:45;4.23;;;1.87;;
78053;SDS011;67726;45.636;11.752;2023-08-06T14:08:11;4.95;;;1.70;;
78053;SDS011;67726;45.636;11.752;2023-08-06T14:10:36;4.60;;;1.80;;
78053;SDS011;67726;45.636;11.752;2023-08-06T14:13:03;4.20;;;1.50;;
78053;SDS011;67726;45.636;11.752;2023-08-06T14:15:29;3.30;;;1.48;;
78053;SDS011;67726;45.636;11.752;2023-08-06T14:17:54;4.57;;;1.47;;
78053;SDS011;67726;45.636;11.752;2023-08-06T14:20:20;3.40;;;1.33;;
78053;SDS011;67726;45.636;11.752;2023-08-06T14:22:46;7.77;;;1.60;;
78053;SDS011;67726;45.636;11.752;2023-08-06T14:25:11;3.87;;;1.40;;
78053;SDS011;67726;45.636;11.752;2023-08-06T14:27:37;3.13;;;1.40;;
78053;SDS011;67726;45.636;11.752;2023-08-06T14:30:05;4.20;;;1.50;;
78053;SDS011;67726;45.636;11.752;2023-08-06T14:32:31;3.50;;;1.40;;
78053;SDS011;67726;45.636;11.752;2023-08-06T14:34:57;5.68;;;1.10;;
78053;SDS011;67726;45.636;11.752;2023-08-06T14:37:24;4.07;;;1.30;;
78053;SDS011;67726;45.636;11.752;2023-08-06T14:39:50;3.23;;;1.30;;
78053;SDS011;67726;45.636;11.752;2023-08-06T14:42:15;4.47;;;1.20;;
78053;SDS011;67726;45.636;11.752;2023-08-06T14:44:41;4.18;;;1.40;;
78053;SDS011;67726;45.636;11.752;2023-08-06T14:47:07;3.40;;;1.30;;
78053;SDS011;67726;45.636;11.752;2023-08-06T14:49:32;3.33;;;1.17;;
78053;SDS011;67726;45.636;11.752;2023-08-06T14:51:58;4.37;;;1.30;;